sensor_id;sensor_type;location;lat;lon;timestamp;P1;durP1;ratioP1;P2;durP2;ratioP2
62832;SDS011;48891;49.220;6.920;2023-06-14T00:01:49;6.53;;;4.82;;
62832;SDS011;48891;49.220;6.920;2023-06-14T00:04:14;6.07;;;4.70;;
62832;SDS011;48891;49.220;6.920;2023-06-14T00:06:39;6.82;;;5.28;;
62832;SDS011;48891;49.220;6.920;2023-06-14T00:09:04;7.70;;;5.13;;
62832;SDS011;48891;49.220;6.920;2023-06-14T00:11:30;6.03;;;4.87;;
62832;SDS011;48891;49.220;6.920;2023-06-14T00:13:55;9.38;;;4.68;;
62832;SDS011;48891;49.220;6.920;2023-06-14T00:16:20;7.25;;;5.40;;
62832;SDS011;48891;49.220;6.920;2023-06-14T00:18:45;7.68;;;5.63;;
62832;SDS011;48891;49.220;6.920;2023-06-14T00:21:11;7.40;;;5.57;;
62832;SDS011;48891;49.220;6.920;2023-06-14T00:23:36;7.13;;;5.17;;
62832;SDS011;48891;49.220;6.920;2023-06-14T00:26:02;6.60;;;4.90;;
62832;SDS011;48891;49.220;6.920;2023-06-14T00:28:28;8.47;;;4.97;;
62832;SDS011;48891;49.220;6.920;2023-06-14T00:30:53;5.93;;;4.80;;
62832;SDS011;48891;49.220;6.920;2023-06-14T00:33:18;7.18;;;5.38;;
62832;SDS011;48891;49.220;6.920;2023-06-14T00:35:43;8.05;;;5.00;;
62832;SDS011;48891;49.220;6.920;2023-06-14T00:38:09;6.45;;;5.40;;
62832;SDS011;48891;49.220;6.920;2023-06-14T00:40:34;9.98;;;5.50;;
62832;SDS011;48891;49.220;6.920;2023-06-14T00:42:59;6.70;;;5.07;;
62832;SDS011;48891;49.220;6.920;2023-06-14T00:45:24;7.80;;;5.22;;
62832;SDS011;48891;49.220;6.920;2023-06-14T00:47:49;6.53;;;4.93;;
62832;SDS011;48891;49.220;6.920;2023-06-14T00:50:14;5.80;;;5.00;;
62832;SDS011;48891;49.220;6.920;2023-06-14T00:52:40;6.45;;;5.22;;
62832;SDS011;48891;49.220;6.920;2023-06-14T00:55:05;6.90;;;5.20;;
62832;SDS011;48891;49.220;6.920;2023-06-14T00:57:30;6.03;;;4.93;;
62832;SDS011;48891;49.220;6.920;2023-06-14T00:59:56;7.20;;;5.57;;
62832;SDS011;48891;49.220;6.920;2023-06-14T01:02:21;8.32;;;5.78;;
62832;SDS011;48891;49.220;6.920;2023-06-14T01:04:46;8.13;;;5.93;;
62832;SDS011;48891;49.220;6.920;2023-06-14T01:07:18;6.97;;;5.32;;
62832;SDS011;48891;49.220;6.920;2023-06-14T01:12:34;8.20;;;5.80;;
62832;SDS011;48891;49.220;6.920;2023-06-14T01:15:01;6.68;;;4.90;;
62832;SDS011;48891;49.220;6.920;2023-06-14T01:17:27;7.47;;;4.97;;
62832;SDS011;48891;49.220;6.920;2023-06-14T01:19:52;7.13;;;5.30;;
62832;SDS011;48891;49.220;6.920;2023-06-14T01:22:17;10.77;;;5.93;;
62832;SDS011;48891;49.220;6.920;2023-06-14T01:24:42;8.43;;;6.00;;
62832;SDS011;48891;49.220;6.920;2023-06-14T01:27:08;8.18;;;5.53;;
62832;SDS011;48891;49.220;6.920;2023-06-14T01:29:33;6.95;;;5.43;;
62832;SDS011;48891;49.220;6.920;2023-06-14T01:31:59;6.70;;;5.28;;
62832;SDS011;48891;49.220;6.920;2023-06-14T01:34:25;8.00;;;5.40;;
62832;SDS011;48891;49.220;6.920;2023-06-14T01:36:50;7.60;;;5.40;;
62832;SDS011;48891;49.220;6.920;2023-06-14T01:39:16;7.00;;;5.00;;
62832;SDS011;48891;49.220;6.920;2023-06-14T01:41:42;8.15;;;5.65;;
62832;SDS011;48891;49.220;6.920;2023-06-14T01:44:08;7.03;;;5.28;;
62832;SDS011;48891;49.220;6.920;2023-06-14T01:46:33;7.47;;;5.40;;
62832;SDS011;48891;49.220;6.920;2023-06-14T01:48:58;7.20;;;5.10;;
62832;SDS011;48891;49.220;6.920;2023-06-14T01:51:24;7.00;;;5.50;;
62832;SDS011;48891;49.220;6.920;2023-06-14T01:53:49;7.27;;;5.83;;
62832;SDS011;48891;49.220;6.920;2023-06-14T01:56:14;7.28;;;5.80;;
62832;SDS011;48891;49.220;6.920;2023-06-14T01:58:39;7.85;;;5.50;;
62832;SDS011;48891;49.220;6.920;2023-06-14T02:01:04;6.60;;;5.37;;
62832;SDS011;48891;49.220;6.920;2023-06-14T02:03:29;7.03;;;5.43;;
62832;SDS011;48891;49.220;6.920;2023-06-14T02:05:54;6.78;;;5.20;;
62832;SDS011;48891;49.220;6.920;2023-06-14T02:08:19;6.97;;;5.15;;
62832;SDS011;48891;49.220;6.920;2023-06-14T02:10:44;6.78;;;5.45;;
62832;SDS011;48891;49.220;6.920;2023-06-14T02:13:10;6.82;;;5.00;;
62832;SDS011;48891;49.220;6.920;2023-06-14T02:15:35;7.93;;;5.50;;
62832;SDS011;48891;49.220;6.920;2023-06-14T02:18:01;7.30;;;5.22;;
62832;SDS011;48891;49.220;6.920;2023-06-14T02:20:26;7.65;;;5.20;;
62832;SDS011;48891;49.220;6.920;2023-06-14T02:22:51;6.55;;;5.32;;
62832;SDS011;48891;49.220;6.920;2023-06-14T02:25:16;7.35;;;5.65;;
62832;SDS011;48891;49.220;6.920;2023-06-14T02:27:41;7.37;;;5.40;;
62832;SDS011;48891;49.220;6.920;2023-06-14T02:30:07;6.45;;;5.38;;
62832;SDS011;48891;49.220;6.920;2023-06-14T02:32:32;6.32;;;5.07;;
62832;SDS011;48891;49.220;6.920;2023-06-14T02:34:57;7.70;;;5.60;;
62832;SDS011;48891;49.220;6.920;2023-06-14T02:37:22;7.32;;;5.68;;
62832;SDS011;48891;49.220;6.920;2023-06-14T02:39:48;6.70;;;5.38;;
62832;SDS011;48891;49.220;6.920;2023-06-14T02:42:13;7.25;;;5.53;;
62832;SDS011;48891;49.220;6.920;2023-06-14T02:44:38;7.57;;;5.97;;
62832;SDS011;48891;49.220;6.920;2023-06-14T02:47:04;8.17;;;5.23;;
62832;SDS011;48891;49.220;6.920;2023-06-14T02:49:29;7.10;;;5.28;;
62832;SDS011;48891;49.220;6.920;2023-06-14T02:51:54;8.60;;;5.70;;
62832;SDS011;48891;49.220;6.920;2023-06-14T02:54:19;6.90;;;5.70;;
62832;SDS011;48891;49.220;6.920;2023-06-14T02:56:44;6.90;;;5.13;;
62832;SDS011;48891;49.220;6.920;2023-06-14T02:59:09;6.50;;;5.32;;
62832;SDS011;48891;49.220;6.920;2023-06-14T03:01:34;6.80;;;4.70;;
62832;SDS011;48891;49.220;6.920;2023-06-14T03:04:00;7.93;;;5.23;;
62832;SDS011;48891;49.220;6.920;2023-06-14T03:06:25;7.40;;;5.38;;
62832;SDS011;48891;49.220;6.920;2023-06-14T03:08:50;6.30;;;5.10;;
62832;SDS011;48891;49.220;6.920;2023-06-14T03:11:15;6.88;;;5.28;;
62832;SDS011;48891;49.220;6.920;2023-06-14T03:13:41;6.65;;;5.18;;
62832;SDS011;48891;49.220;6.920;2023-06-14T03:16:06;6.85;;;5.40;;
62832;SDS011;48891;49.220;6.920;2023-06-14T03:18:31;6.50;;;5.00;;
62832;SDS011;48891;49.220;6.920;2023-06-14T03:20:56;7.70;;;5.13;;
62832;SDS011;48891;49.220;6.920;2023-06-14T03:23:21;6.97;;;5.22;;
62832;SDS011;48891;49.220;6.920;2023-06-14T03:25:46;7.32;;;5.03;;
62832;SDS011;48891;49.220;6.920;2023-06-14T03:28:12;6.57;;;5.38;;
62832;SDS011;48891;49.220;6.920;2023-06-14T03:30:37;6.78;;;5.40;;
62832;SDS011;48891;49.220;6.920;2023-06-14T03:33:02;6.38;;;5.07;;
62832;SDS011;48891;49.220;6.920;2023-06-14T03:35:28;7.93;;;5.60;;
62832;SDS011;48891;49.220;6.920;2023-06-14T03:37:53;6.40;;;5.30;;
62832;SDS011;48891;49.220;6.920;2023-06-14T03:40:18;6.68;;;5.28;;
62832;SDS011;48891;49.220;6.920;2023-06-14T03:42:44;7.68;;;5.30;;
62832;SDS011;48891;49.220;6.920;2023-06-14T03:45:09;7.25;;;5.25;;
62832;SDS011;48891;49.220;6.920;2023-06-14T03:47:34;6.87;;;5.30;;
62832;SDS011;48891;49.220;6.920;2023-06-14T03:49:59;6.20;;;4.97;;
62832;SDS011;48891;49.220;6.920;2023-06-14T03:52:24;7.40;;;4.90;;
62832;SDS011;48891;49.220;6.920;2023-06-14T03:54:49;6.82;;;5.43;;
62832;SDS011;48891;49.220;6.920;2023-06-14T03:57:15;6.82;;;4.78;;
62832;SDS011;48891;49.220;6.920;2023-06-14T03:59:40;6.22;;;5.13;;
62832;SDS011;48891;49.220;6.920;2023-06-14T04:02:05;6.25;;;5.18;;
62832;SDS011;48891;49.220;6.920;2023-06-14T04:04:30;6.87;;;5.20;;
62832;SDS011;48891;49.220;6.920;2023-06-14T04:06:56;7.63;;;5.40;;
62832;SDS011;48891;49.220;6.920;2023-06-14T04:09:21;6.55;;;4.72;;
62832;SDS011;48891;49.220;6.920;2023-06-14T04:11:46;7.90;;;5.30;;
62832;SDS011;48891;49.220;6.920;2023-06-14T04:14:11;6.90;;;4.83;;
62832;SDS011;48891;49.220;6.920;2023-06-14T04:16:36;6.60;;;5.18;;
62832;SDS011;48891;49.220;6.920;2023-06-14T04:19:01;6.55;;;5.13;;
62832;SDS011;48891;49.220;6.920;2023-06-14T04:21:26;6.70;;;4.97;;
62832;SDS011;48891;49.220;6.920;2023-06-14T04:23:52;6.47;;;4.85;;
62832;SDS011;48891;49.220;6.920;2023-06-14T04:26:17;6.75;;;4.90;;
62832;SDS011;48891;49.220;6.920;2023-06-14T04:28:42;6.10;;;5.10;;
62832;SDS011;48891;49.220;6.920;2023-06-14T04:31:07;7.43;;;5.47;;
62832;SDS011;48891;49.220;6.920;2023-06-14T04:33:32;7.67;;;5.30;;
62832;SDS011;48891;49.220;6.920;2023-06-14T04:35:57;6.85;;;5.20;;
62832;SDS011;48891;49.220;6.920;2023-06-14T04:38:22;6.38;;;5.20;;
62832;SDS011;48891;49.220;6.920;2023-06-14T04:40:47;6.13;;;5.10;;
62832;SDS011;48891;49.220;6.920;2023-06-14T04:43:13;6.47;;;5.05;;
62832;SDS011;48891;49.220;6.920;2023-06-14T04:45:38;7.47;;;4.97;;
62832;SDS011;48891;49.220;6.920;2023-06-14T04:48:03;7.20;;;5.10;;
62832;SDS011;48891;49.220;6.920;2023-06-14T04:50:28;6.90;;;5.63;;
62832;SDS011;48891;49.220;6.920;2023-06-14T04:52:53;6.63;;;5.00;;
62832;SDS011;48891;49.220;6.920;2023-06-14T04:55:18;7.75;;;5.47;;
62832;SDS011;48891;49.220;6.920;2023-06-14T04:57:43;7.72;;;5.50;;
62832;SDS011;48891;49.220;6.920;2023-06-14T05:00:09;6.97;;;4.95;;
62832;SDS011;48891;49.220;6.920;2023-06-14T05:02:34;6.95;;;5.40;;
62832;SDS011;48891;49.220;6.920;2023-06-14T05:04:59;7.68;;;5.45;;
62832;SDS011;48891;49.220;6.920;2023-06-14T05:07:24;7.53;;;5.22;;
62832;SDS011;48891;49.220;6.920;2023-06-14T05:09:49;8.57;;;5.00;;
62832;SDS011;48891;49.220;6.920;2023-06-14T05:12:14;6.55;;;5.40;;
62832;SDS011;48891;49.220;6.920;2023-06-14T05:14:39;7.60;;;5.30;;
62832;SDS011;48891;49.220;6.920;2023-06-14T05:17:05;6.70;;;5.10;;
62832;SDS011;48891;49.220;6.920;2023-06-14T05:19:30;7.47;;;5.30;;
62832;SDS011;48891;49.220;6.920;2023-06-14T05:21:55;6.22;;;5.05;;
62832;SDS011;48891;49.220;6.920;2023-06-14T05:24:20;6.55;;;5.07;;
62832;SDS011;48891;49.220;6.920;2023-06-14T05:26:45;6.90;;;5.13;;
62832;SDS011;48891;49.220;6.920;2023-06-14T05:29:11;6.90;;;4.85;;
62832;SDS011;48891;49.220;6.920;2023-06-14T05:31:36;6.50;;;5.20;;
62832;SDS011;48891;49.220;6.920;2023-06-14T05:34:01;6.68;;;5.25;;
62832;SDS011;48891;49.220;6.920;2023-06-14T05:36:26;6.78;;;5.10;;
62832;SDS011;48891;49.220;6.920;2023-06-14T05:38:51;6.25;;;5.10;;
62832;SDS011;48891;49.220;6.920;2023-06-14T05:41:16;7.22;;;5.65;;
62832;SDS011;48891;49.220;6.920;2023-06-14T05:43:42;7.85;;;5.63;;
62832;SDS011;48891;49.220;6.920;2023-06-14T05:46:07;7.93;;;5.43;;
62832;SDS011;48891;49.220;6.920;2023-06-14T05:48:32;8.93;;;5.30;;
62832;SDS011;48891;49.220;6.920;2023-06-14T05:50:57;8.10;;;5.45;;
62832;SDS011;48891;49.220;6.920;2023-06-14T05:53:22;7.77;;;5.10;;
62832;SDS011;48891;49.220;6.920;2023-06-14T05:55:47;7.60;;;5.10;;
62832;SDS011;48891;49.220;6.920;2023-06-14T05:58:12;5.97;;;5.17;;
62832;SDS011;48891;49.220;6.920;2023-06-14T06:00:38;8.15;;;5.30;;
62832;SDS011;48891;49.220;6.920;2023-06-14T06:03:03;8.10;;;5.13;;
62832;SDS011;48891;49.220;6.920;2023-06-14T06:05:28;7.20;;;5.28;;
62832;SDS011;48891;49.220;6.920;2023-06-14T06:07:53;9.55;;;5.18;;
62832;SDS011;48891;49.220;6.920;2023-06-14T06:10:18;6.03;;;4.80;;
62832;SDS011;48891;49.220;6.920;2023-06-14T06:12:43;6.28;;;4.75;;
62832;SDS011;48891;49.220;6.920;2023-06-14T06:15:08;6.97;;;4.72;;
62832;SDS011;48891;49.220;6.920;2023-06-14T06:17:34;7.53;;;4.72;;
62832;SDS011;48891;49.220;6.920;2023-06-14T06:19:59;6.63;;;4.70;;
62832;SDS011;48891;49.220;6.920;2023-06-14T06:22:24;8.38;;;5.38;;
62832;SDS011;48891;49.220;6.920;2023-06-14T06:24:49;7.20;;;4.50;;
62832;SDS011;48891;49.220;6.920;2023-06-14T06:27:14;6.45;;;4.80;;
62832;SDS011;48891;49.220;6.920;2023-06-14T06:29:41;6.28;;;4.65;;
62832;SDS011;48891;49.220;6.920;2023-06-14T06:32:06;7.88;;;5.32;;
62832;SDS011;48891;49.220;6.920;2023-06-14T06:34:32;7.45;;;5.03;;
62832;SDS011;48891;49.220;6.920;2023-06-14T06:36:57;8.02;;;4.53;;
62832;SDS011;48891;49.220;6.920;2023-06-14T06:39:22;7.00;;;5.30;;
62832;SDS011;48891;49.220;6.920;2023-06-14T06:41:47;5.88;;;4.70;;
62832;SDS011;48891;49.220;6.920;2023-06-14T06:44:12;7.85;;;5.15;;
62832;SDS011;48891;49.220;6.920;2023-06-14T06:46:38;7.00;;;4.82;;
62832;SDS011;48891;49.220;6.920;2023-06-14T06:49:03;6.35;;;4.85;;
62832;SDS011;48891;49.220;6.920;2023-06-14T06:51:28;7.30;;;4.95;;
62832;SDS011;48891;49.220;6.920;2023-06-14T06:53:53;7.57;;;4.85;;
62832;SDS011;48891;49.220;6.920;2023-06-14T06:56:18;7.47;;;4.97;;
62832;SDS011;48891;49.220;6.920;2023-06-14T06:58:43;7.40;;;5.07;;
62832;SDS011;48891;49.220;6.920;2023-06-14T07:01:09;7.40;;;5.00;;
62832;SDS011;48891;49.220;6.920;2023-06-14T07:03:34;6.70;;;4.82;;
62832;SDS011;48891;49.220;6.920;2023-06-14T07:05:59;10.27;;;5.30;;
62832;SDS011;48891;49.220;6.920;2023-06-14T07:08:24;7.90;;;4.70;;
62832;SDS011;48891;49.220;6.920;2023-06-14T07:10:49;6.78;;;5.03;;
62832;SDS011;48891;49.220;6.920;2023-06-14T07:13:14;7.90;;;5.32;;
62832;SDS011;48891;49.220;6.920;2023-06-14T07:15:39;9.75;;;5.35;;
62832;SDS011;48891;49.220;6.920;2023-06-14T07:18:04;6.53;;;5.03;;
62832;SDS011;48891;49.220;6.920;2023-06-14T07:20:29;6.88;;;4.75;;
62832;SDS011;48891;49.220;6.920;2023-06-14T07:22:54;7.25;;;5.00;;
62832;SDS011;48891;49.220;6.920;2023-06-14T07:25:20;7.15;;;5.22;;
62832;SDS011;48891;49.220;6.920;2023-06-14T07:27:45;7.25;;;4.88;;
62832;SDS011;48891;49.220;6.920;2023-06-14T07:30:10;7.13;;;4.90;;
62832;SDS011;48891;49.220;6.920;2023-06-14T07:32:36;6.35;;;4.40;;
62832;SDS011;48891;49.220;6.920;2023-06-14T07:35:01;10.10;;;5.05;;
62832;SDS011;48891;49.220;6.920;2023-06-14T07:37:26;7.10;;;4.80;;
62832;SDS011;48891;49.220;6.920;2023-06-14T07:39:51;7.15;;;5.10;;
62832;SDS011;48891;49.220;6.920;2023-06-14T07:42:16;7.25;;;4.82;;
62832;SDS011;48891;49.220;6.920;2023-06-14T07:44:41;9.13;;;5.40;;
62832;SDS011;48891;49.220;6.920;2023-06-14T07:47:07;7.32;;;4.63;;
62832;SDS011;48891;49.220;6.920;2023-06-14T07:49:32;6.20;;;5.28;;
62832;SDS011;48891;49.220;6.920;2023-06-14T07:51:57;6.22;;;4.70;;
62832;SDS011;48891;49.220;6.920;2023-06-14T07:54:22;8.10;;;5.15;;
62832;SDS011;48891;49.220;6.920;2023-06-14T07:56:47;7.72;;;4.53;;
62832;SDS011;48891;49.220;6.920;2023-06-14T07:59:12;7.93;;;4.95;;
62832;SDS011;48891;49.220;6.920;2023-06-14T08:01:37;7.15;;;4.68;;
62832;SDS011;48891;49.220;6.920;2023-06-14T08:04:02;7.35;;;4.82;;
62832;SDS011;48891;49.220;6.920;2023-06-14T08:06:27;7.47;;;4.53;;
62832;SDS011;48891;49.220;6.920;2023-06-14T08:08:53;12.25;;;5.68;;
62832;SDS011;48891;49.220;6.920;2023-06-14T08:11:18;6.53;;;4.78;;
62832;SDS011;48891;49.220;6.920;2023-06-14T08:13:43;6.70;;;4.47;;
62832;SDS011;48891;49.220;6.920;2023-06-14T08:16:08;7.10;;;4.93;;
62832;SDS011;48891;49.220;6.920;2023-06-14T08:18:33;6.72;;;4.72;;
62832;SDS011;48891;49.220;6.920;2023-06-14T08:20:59;6.20;;;4.72;;
62832;SDS011;48891;49.220;6.920;2023-06-14T08:23:24;7.40;;;4.80;;
62832;SDS011;48891;49.220;6.920;2023-06-14T08:25:49;5.67;;;4.43;;
62832;SDS011;48891;49.220;6.920;2023-06-14T08:28:14;8.60;;;5.07;;
62832;SDS011;48891;49.220;6.920;2023-06-14T08:30:39;8.50;;;4.53;;
62832;SDS011;48891;49.220;6.920;2023-06-14T08:33:04;6.80;;;4.55;;
62832;SDS011;48891;49.220;6.920;2023-06-14T08:35:29;8.75;;;4.30;;
62832;SDS011;48891;49.220;6.920;2023-06-14T08:37:54;6.85;;;5.07;;
62832;SDS011;48891;49.220;6.920;2023-06-14T08:40:21;8.20;;;4.80;;
62832;SDS011;48891;49.220;6.920;2023-06-14T08:42:53;7.72;;;4.97;;
62832;SDS011;48891;49.220;6.920;2023-06-14T08:45:21;6.70;;;4.60;;
62832;SDS011;48891;49.220;6.920;2023-06-14T08:47:47;7.53;;;4.68;;
62832;SDS011;48891;49.220;6.920;2023-06-14T08:50:13;5.93;;;4.88;;
62832;SDS011;48891;49.220;6.920;2023-06-14T08:52:38;9.27;;;4.38;;
62832;SDS011;48891;49.220;6.920;2023-06-14T08:55:03;6.72;;;4.32;;
62832;SDS011;48891;49.220;6.920;2023-06-14T08:57:29;5.57;;;4.47;;
62832;SDS011;48891;49.220;6.920;2023-06-14T08:59:54;7.20;;;4.23;;
62832;SDS011;48891;49.220;6.920;2023-06-14T09:02:19;6.03;;;4.35;;
62832;SDS011;48891;49.220;6.920;2023-06-14T09:04:45;5.37;;;4.17;;
62832;SDS011;48891;49.220;6.920;2023-06-14T09:07:10;6.43;;;4.47;;
62832;SDS011;48891;49.220;6.920;2023-06-14T09:09:38;6.35;;;4.68;;
62832;SDS011;48891;49.220;6.920;2023-06-14T09:12:03;5.95;;;4.20;;
62832;SDS011;48891;49.220;6.920;2023-06-14T09:14:31;5.97;;;4.68;;
62832;SDS011;48891;49.220;6.920;2023-06-14T09:16:56;5.63;;;4.50;;
62832;SDS011;48891;49.220;6.920;2023-06-14T09:19:21;6.78;;;4.35;;
62832;SDS011;48891;49.220;6.920;2023-06-14T09:21:47;9.65;;;4.80;;
62832;SDS011;48891;49.220;6.920;2023-06-14T09:24:13;7.85;;;4.93;;
62832;SDS011;48891;49.220;6.920;2023-06-14T09:26:38;5.22;;;4.07;;
62832;SDS011;48891;49.220;6.920;2023-06-14T09:29:04;8.73;;;4.30;;
62832;SDS011;48891;49.220;6.920;2023-06-14T09:31:30;6.18;;;4.38;;
62832;SDS011;48891;49.220;6.920;2023-06-14T09:33:55;5.57;;;4.30;;
62832;SDS011;48891;49.220;6.920;2023-06-14T09:36:24;5.72;;;4.03;;
62832;SDS011;48891;49.220;6.920;2023-06-14T09:38:59;6.43;;;4.20;;
62832;SDS011;48891;49.220;6.920;2023-06-14T09:41:57;5.88;;;4.13;;
62832;SDS011;48891;49.220;6.920;2023-06-14T09:44:15;5.15;;;4.05;;
62832;SDS011;48891;49.220;6.920;2023-06-14T09:46:41;6.45;;;4.32;;
62832;SDS011;48891;49.220;6.920;2023-06-14T09:49:06;9.18;;;4.60;;
62832;SDS011;48891;49.220;6.920;2023-06-14T09:51:32;5.95;;;4.20;;
62832;SDS011;48891;49.220;6.920;2023-06-14T09:54:03;7.82;;;4.53;;
62832;SDS011;48891;49.220;6.920;2023-06-14T09:56:29;6.78;;;4.63;;
62832;SDS011;48891;49.220;6.920;2023-06-14T09:58:55;5.43;;;4.05;;
62832;SDS011;48891;49.220;6.920;2023-06-14T10:01:20;6.35;;;4.30;;
62832;SDS011;48891;49.220;6.920;2023-06-14T10:03:46;5.78;;;4.07;;
62832;SDS011;48891;49.220;6.920;2023-06-14T10:06:11;7.10;;;4.38;;
62832;SDS011;48891;49.220;6.920;2023-06-14T10:08:37;6.30;;;4.63;;
62832;SDS011;48891;49.220;6.920;2023-06-14T10:11:02;6.07;;;4.35;;
62832;SDS011;48891;49.220;6.920;2023-06-14T10:13:28;6.43;;;4.73;;
62832;SDS011;48891;49.220;6.920;2023-06-14T10:18:30;6.10;;;4.28;;
62832;SDS011;48891;49.220;6.920;2023-06-14T10:23:30;5.53;;;4.43;;
62832;SDS011;48891;49.220;6.920;2023-06-14T10:25:57;5.88;;;4.32;;
62832;SDS011;48891;49.220;6.920;2023-06-14T10:28:23;6.00;;;4.23;;
62832;SDS011;48891;49.220;6.920;2023-06-14T10:33:32;7.30;;;4.65;;
62832;SDS011;48891;49.220;6.920;2023-06-14T10:36:07;7.47;;;4.50;;
62832;SDS011;48891;49.220;6.920;2023-06-14T10:38:32;5.70;;;4.00;;
62832;SDS011;48891;49.220;6.920;2023-06-14T10:40:57;6.18;;;4.50;;
62832;SDS011;48891;49.220;6.920;2023-06-14T10:43:23;9.13;;;4.97;;
62832;SDS011;48891;49.220;6.920;2023-06-14T10:48:32;6.07;;;4.60;;
62832;SDS011;48891;49.220;6.920;2023-06-14T10:51:01;6.13;;;4.15;;
62832;SDS011;48891;49.220;6.920;2023-06-14T10:53:26;7.30;;;4.40;;
62832;SDS011;48891;49.220;6.920;2023-06-14T10:55:51;5.47;;;4.55;;
62832;SDS011;48891;49.220;6.920;2023-06-14T10:58:17;5.45;;;4.05;;
62832;SDS011;48891;49.220;6.920;2023-06-14T11:00:42;7.07;;;4.18;;
62832;SDS011;48891;49.220;6.920;2023-06-14T11:03:28;6.55;;;3.80;;
62832;SDS011;48891;49.220;6.920;2023-06-14T11:05:57;5.40;;;3.80;;
62832;SDS011;48891;49.220;6.920;2023-06-14T11:08:49;5.22;;;3.75;;
62832;SDS011;48891;49.220;6.920;2023-06-14T11:11:18;6.88;;;4.55;;
62832;SDS011;48891;49.220;6.920;2023-06-14T11:16:15;6.32;;;4.25;;
62832;SDS011;48891;49.220;6.920;2023-06-14T11:18:40;7.60;;;4.47;;
62832;SDS011;48891;49.220;6.920;2023-06-14T11:21:05;6.35;;;4.28;;
62832;SDS011;48891;49.220;6.920;2023-06-14T11:23:31;7.50;;;4.60;;
62832;SDS011;48891;49.220;6.920;2023-06-14T11:25:56;5.53;;;4.00;;
62832;SDS011;48891;49.220;6.920;2023-06-14T11:28:21;6.15;;;4.03;;
62832;SDS011;48891;49.220;6.920;2023-06-14T11:30:46;5.97;;;4.20;;
62832;SDS011;48891;49.220;6.920;2023-06-14T11:33:11;6.93;;;4.05;;
62832;SDS011;48891;49.220;6.920;2023-06-14T11:35:41;6.55;;;4.35;;
62832;SDS011;48891;49.220;6.920;2023-06-14T11:38:06;6.40;;;4.50;;
62832;SDS011;48891;49.220;6.920;2023-06-14T11:40:31;6.18;;;4.18;;
62832;SDS011;48891;49.220;6.920;2023-06-14T11:43:00;7.13;;;4.45;;
62832;SDS011;48891;49.220;6.920;2023-06-14T11:45:25;5.55;;;3.88;;
62832;SDS011;48891;49.220;6.920;2023-06-14T11:47:50;5.90;;;4.40;;
62832;SDS011;48891;49.220;6.920;2023-06-14T11:50:16;5.85;;;4.07;;
62832;SDS011;48891;49.220;6.920;2023-06-14T11:52:41;5.90;;;4.00;;
62832;SDS011;48891;49.220;6.920;2023-06-14T11:55:06;5.33;;;3.80;;
62832;SDS011;48891;49.220;6.920;2023-06-14T11:57:35;6.95;;;4.10;;
62832;SDS011;48891;49.220;6.920;2023-06-14T12:00:00;5.72;;;4.15;;
62832;SDS011;48891;49.220;6.920;2023-06-14T12:02:27;5.87;;;4.23;;
62832;SDS011;48891;49.220;6.920;2023-06-14T12:04:56;5.35;;;3.95;;
62832;SDS011;48891;49.220;6.920;2023-06-14T12:07:21;5.10;;;3.88;;
62832;SDS011;48891;49.220;6.920;2023-06-14T12:12:18;5.25;;;3.80;;
62832;SDS011;48891;49.220;6.920;2023-06-14T12:14:43;4.72;;;3.50;;
62832;SDS011;48891;49.220;6.920;2023-06-14T12:17:08;5.63;;;4.03;;
62832;SDS011;48891;49.220;6.920;2023-06-14T12:19:33;5.65;;;3.72;;
62832;SDS011;48891;49.220;6.920;2023-06-14T12:22:01;6.43;;;3.83;;
62832;SDS011;48891;49.220;6.920;2023-06-14T12:26:51;6.53;;;3.88;;
62832;SDS011;48891;49.220;6.920;2023-06-14T12:29:18;7.18;;;4.95;;
62832;SDS011;48891;49.220;6.920;2023-06-14T12:31:44;5.53;;;3.67;;
62832;SDS011;48891;49.220;6.920;2023-06-14T12:34:09;5.57;;;3.83;;
62832;SDS011;48891;49.220;6.920;2023-06-14T12:36:34;7.30;;;4.13;;
62832;SDS011;48891;49.220;6.920;2023-06-14T12:38:59;4.80;;;3.83;;
62832;SDS011;48891;49.220;6.920;2023-06-14T12:41:24;5.43;;;3.83;;
62832;SDS011;48891;49.220;6.920;2023-06-14T12:43:49;6.45;;;4.10;;
62832;SDS011;48891;49.220;6.920;2023-06-14T12:46:14;5.85;;;3.78;;
62832;SDS011;48891;49.220;6.920;2023-06-14T12:48:39;4.90;;;3.65;;
62832;SDS011;48891;49.220;6.920;2023-06-14T12:51:05;5.73;;;3.67;;
62832;SDS011;48891;49.220;6.920;2023-06-14T12:53:30;6.22;;;4.20;;
62832;SDS011;48891;49.220;6.920;2023-06-14T12:55:55;5.40;;;4.00;;
62832;SDS011;48891;49.220;6.920;2023-06-14T12:58:20;4.70;;;3.67;;
62832;SDS011;48891;49.220;6.920;2023-06-14T13:00:45;5.80;;;4.00;;
62832;SDS011;48891;49.220;6.920;2023-06-14T13:03:11;6.75;;;3.97;;
62832;SDS011;48891;49.220;6.920;2023-06-14T13:05:36;5.00;;;3.65;;
62832;SDS011;48891;49.220;6.920;2023-06-14T13:08:01;4.32;;;3.60;;
62832;SDS011;48891;49.220;6.920;2023-06-14T13:10:26;5.53;;;3.75;;
62832;SDS011;48891;49.220;6.920;2023-06-14T13:12:51;7.65;;;3.88;;
62832;SDS011;48891;49.220;6.920;2023-06-14T13:15:16;5.67;;;3.97;;
62832;SDS011;48891;49.220;6.920;2023-06-14T13:17:42;7.97;;;3.80;;
62832;SDS011;48891;49.220;6.920;2023-06-14T13:20:07;5.05;;;3.88;;
62832;SDS011;48891;49.220;6.920;2023-06-14T13:22:33;5.68;;;3.67;;
62832;SDS011;48891;49.220;6.920;2023-06-14T13:24:58;4.22;;;3.13;;
62832;SDS011;48891;49.220;6.920;2023-06-14T13:27:23;5.40;;;3.63;;
62832;SDS011;48891;49.220;6.920;2023-06-14T13:29:49;5.33;;;3.77;;
62832;SDS011;48891;49.220;6.920;2023-06-14T13:32:14;5.20;;;3.60;;
62832;SDS011;48891;49.220;6.920;2023-06-14T13:34:39;7.10;;;3.70;;
62832;SDS011;48891;49.220;6.920;2023-06-14T13:37:04;6.82;;;4.03;;
62832;SDS011;48891;49.220;6.920;2023-06-14T13:39:29;5.68;;;3.53;;
62832;SDS011;48891;49.220;6.920;2023-06-14T13:41:54;6.28;;;3.53;;
62832;SDS011;48891;49.220;6.920;2023-06-14T13:44:19;5.40;;;3.65;;
62832;SDS011;48891;49.220;6.920;2023-06-14T13:46:45;4.75;;;3.67;;
62832;SDS011;48891;49.220;6.920;2023-06-14T13:49:10;5.47;;;3.23;;
62832;SDS011;48891;49.220;6.920;2023-06-14T13:51:35;5.38;;;3.40;;
62832;SDS011;48891;49.220;6.920;2023-06-14T13:54:00;4.82;;;3.20;;
62832;SDS011;48891;49.220;6.920;2023-06-14T13:56:25;5.70;;;3.33;;
62832;SDS011;48891;49.220;6.920;2023-06-14T13:58:50;5.30;;;3.40;;
62832;SDS011;48891;49.220;6.920;2023-06-14T14:01:15;4.80;;;3.47;;
62832;SDS011;48891;49.220;6.920;2023-06-14T14:03:40;4.93;;;3.50;;
62832;SDS011;48891;49.220;6.920;2023-06-14T14:06:06;5.75;;;3.10;;
62832;SDS011;48891;49.220;6.920;2023-06-14T14:08:31;5.25;;;3.72;;
62832;SDS011;48891;49.220;6.920;2023-06-14T14:10:56;4.28;;;3.05;;
62832;SDS011;48891;49.220;6.920;2023-06-14T14:13:21;4.82;;;3.28;;
62832;SDS011;48891;49.220;6.920;2023-06-14T14:15:46;4.68;;;3.05;;
62832;SDS011;48891;49.220;6.920;2023-06-14T14:18:12;5.63;;;3.40;;
62832;SDS011;48891;49.220;6.920;2023-06-14T14:20:37;4.50;;;3.08;;
62832;SDS011;48891;49.220;6.920;2023-06-14T14:23:02;4.63;;;3.13;;
62832;SDS011;48891;49.220;6.920;2023-06-14T14:25:27;4.13;;;3.22;;
62832;SDS011;48891;49.220;6.920;2023-06-14T14:27:52;4.93;;;3.20;;
62832;SDS011;48891;49.220;6.920;2023-06-14T14:30:17;4.83;;;3.10;;
62832;SDS011;48891;49.220;6.920;2023-06-14T14:32:42;4.88;;;3.22;;
62832;SDS011;48891;49.220;6.920;2023-06-14T14:35:07;4.63;;;3.17;;
62832;SDS011;48891;49.220;6.920;2023-06-14T14:37:33;4.85;;;3.08;;
62832;SDS011;48891;49.220;6.920;2023-06-14T14:39:58;6.30;;;3.50;;
62832;SDS011;48891;49.220;6.920;2023-06-14T14:42:23;4.65;;;2.92;;
62832;SDS011;48891;49.220;6.920;2023-06-14T14:44:48;4.38;;;3.13;;
62832;SDS011;48891;49.220;6.920;2023-06-14T14:47:13;4.78;;;3.45;;
62832;SDS011;48891;49.220;6.920;2023-06-14T14:49:38;4.47;;;2.75;;
62832;SDS011;48891;49.220;6.920;2023-06-14T14:52:03;4.93;;;3.25;;
62832;SDS011;48891;49.220;6.920;2023-06-14T14:54:29;4.63;;;3.22;;
62832;SDS011;48891;49.220;6.920;2023-06-14T14:56:54;4.55;;;3.10;;
62832;SDS011;48891;49.220;6.920;2023-06-14T14:59:19;3.87;;;2.80;;